createdAt,value
2023-05-11T00:00:46.685Z,1.08
2023-05-11T00:03:14.903Z,0.70
2023-05-11T00:05:43.300Z,0.75
2023-05-11T00:08:11.387Z,1.40
2023-05-11T00:10:39.452Z,1.45
2023-05-11T00:13:08.854Z,1.33
2023-05-11T00:15:36.914Z,1.20
2023-05-11T00:18:05.077Z,0.80
2023-05-11T00:20:33.186Z,1.00
2023-05-11T00:23:01.258Z,1.20
2023-05-11T00:25:29.473Z,1.17
2023-05-11T00:27:57.577Z,1.27
2023-05-11T00:30:27.025Z,1.13
2023-05-11T00:32:55.124Z,1.13
2023-05-11T00:35:23.358Z,1.20
2023-05-11T00:37:51.482Z,1.00
2023-05-11T00:40:19.725Z,0.98
2023-05-11T00:42:47.966Z,1.00
2023-05-11T00:45:16.030Z,1.05
2023-05-11T00:47:45.496Z,1.10
2023-05-11T00:50:13.710Z,0.70
2023-05-11T00:52:42.796Z,1.10
2023-05-11T00:55:12.440Z,0.98
2023-05-11T00:57:40.758Z,1.00
2023-05-11T01:00:10.359Z,0.90
2023-05-11T01:02:38.851Z,0.90
2023-05-11T01:05:09.506Z,0.95
2023-05-11T01:07:43.948Z,1.20
2023-05-11T01:10:20.773Z,0.98
2023-05-11T01:12:57.995Z,1.00
2023-05-11T01:15:31.268Z,1.20
2023-05-11T01:18:06.676Z,0.98
2023-05-11T01:20:36.848Z,1.02
2023-05-11T01:23:26.032Z,1.02
2023-05-11T01:26:12.562Z,1.20
2023-05-11T01:28:59.546Z,1.40
2023-05-11T01:31:32.134Z,1.00
2023-05-11T01:34:05.040Z,1.42
2023-05-11T01:36:37.037Z,1.65
2023-05-11T01:39:08.932Z,1.58
2023-05-11T01:44:10.697Z,2.10
2023-05-11T01:49:09.160Z,4.10
2023-05-11T01:51:39.462Z,3.50
2023-05-11T01:54:09.697Z,3.92
2023-05-11T01:56:44.479Z,4.15
2023-05-11T01:59:14.257Z,4.32
2023-05-11T02:01:44.249Z,4.20
2023-05-11T02:04:13.935Z,4.15
2023-05-11T02:06:43.920Z,4.72
2023-05-11T02:09:13.676Z,4.40
2023-05-11T02:11:43.494Z,4.70
2023-05-11T02:14:12.793Z,4.47
2023-05-11T02:16:41.511Z,4.60
2023-05-11T02:19:11.677Z,5.35
2023-05-11T02:21:40.833Z,5.05
2023-05-11T02:24:09.653Z,4.68
2023-05-11T02:26:38.596Z,4.53
2023-05-11T02:29:06.681Z,4.57
2023-05-11T02:31:41.398Z,4.82
2023-05-11T02:34:20.853Z,4.75
2023-05-11T02:36:50.495Z,5.47
2023-05-11T02:39:22.775Z,4.75
2023-05-11T02:41:57.730Z,5.00
2023-05-11T02:44:32.630Z,4.70
2023-05-11T02:47:04.570Z,5.38
2023-05-11T02:49:37.181Z,4.90
2023-05-11T02:52:06.438Z,4.45
2023-05-11T02:54:35.465Z,4.47
2023-05-11T02:57:04.887Z,5.03
2023-05-11T02:59:33.396Z,5.55
2023-05-11T03:02:01.950Z,4.60
2023-05-11T03:04:30.370Z,5.25
2023-05-11T03:06:59.799Z,3.90
2023-05-11T03:09:27.937Z,5.43
2023-05-11T03:11:56.171Z,5.07
2023-05-11T03:14:24.478Z,5.47
2023-05-11T03:16:53.483Z,6.82
2023-05-11T03:19:21.697Z,5.63
2023-05-11T03:21:52.232Z,6.28
2023-05-11T03:24:22.456Z,5.80
2023-05-11T03:26:52.341Z,5.82
2023-05-11T03:29:21.277Z,6.13
2023-05-11T03:31:51.211Z,6.43
2023-05-11T03:34:19.593Z,6.53
2023-05-11T03:36:50.233Z,6.90
2023-05-11T03:39:18.788Z,6.85
2023-05-11T03:41:51.459Z,6.00
2023-05-11T03:44:21.283Z,6.85
2023-05-11T03:46:51.344Z,7.30
2023-05-11T03:49:21.092Z,7.28
2023-05-11T03:51:49.636Z,5.80
2023-05-11T03:54:17.891Z,6.80
2023-05-11T03:56:47.348Z,6.57
2023-05-11T03:59:17.380Z,6.40
2023-05-11T04:01:45.975Z,6.03
2023-05-11T04:04:14.121Z,6.85
2023-05-11T04:06:42.242Z,6.45
2023-05-11T04:09:10.314Z,6.85
2023-05-11T04:11:38.700Z,5.65
2023-05-11T04:14:08.171Z,6.68
2023-05-11T04:16:36.354Z,7.53
2023-05-11T04:19:04.465Z,6.68
2023-05-11T04:21:32.662Z,7.13
2023-05-11T04:24:00.882Z,7.50
2023-05-11T04:26:29.094Z,6.95
2023-05-11T04:28:57.145Z,7.00
2023-05-11T04:31:26.614Z,6.15
2023-05-11T04:33:54.656Z,6.53
2023-05-11T04:36:23.374Z,6.82
2023-05-11T04:38:53.085Z,7.07
2023-05-11T04:41:22.338Z,6.95
2023-05-11T04:43:50.435Z,9.75
2023-05-11T04:46:18.773Z,10.30
2023-05-11T04:48:48.242Z,8.20
2023-05-11T04:51:17.349Z,6.20
2023-05-11T04:53:45.369Z,6.75
2023-05-11T04:56:13.419Z,6.57
2023-05-11T04:58:41.445Z,6.47
2023-05-11T05:01:09.777Z,6.10
2023-05-11T05:03:37.925Z,6.28
2023-05-11T05:06:07.610Z,7.97
2023-05-11T05:08:35.653Z,6.18
2023-05-11T05:11:03.737Z,6.30
2023-05-11T05:13:31.766Z,6.20
2023-05-11T05:16:00.008Z,7.07
2023-05-11T05:18:28.948Z,7.00
2023-05-11T05:20:57.060Z,7.60
2023-05-11T05:23:26.623Z,7.28
2023-05-11T05:25:54.899Z,7.05
2023-05-11T05:28:22.932Z,6.95
2023-05-11T05:30:51.082Z,6.50
2023-05-11T05:33:19.151Z,6.00
2023-05-11T05:35:47.778Z,6.65
2023-05-11T05:38:15.831Z,6.68
2023-05-11T05:40:45.307Z,6.32
2023-05-11T05:43:13.398Z,6.43
2023-05-11T05:45:41.445Z,6.18
2023-05-11T05:48:10.073Z,6.90
2023-05-11T05:50:38.732Z,6.50
2023-05-11T05:53:07.457Z,6.15
2023-05-11T05:55:35.508Z,6.90
2023-05-11T05:58:04.922Z,6.80
2023-05-11T06:00:33.000Z,6.97
2023-05-11T06:03:01.241Z,7.13
2023-05-11T06:05:29.349Z,6.60
2023-05-11T06:08:09.300Z,6.85
2023-05-11T06:10:38.745Z,7.10
2023-05-11T06:13:09.236Z,7.28
2023-05-11T06:15:37.321Z,7.32
2023-05-11T06:18:05.643Z,7.18
2023-05-11T06:20:33.746Z,7.82
2023-05-11T06:23:01.787Z,7.18
2023-05-11T06:25:29.856Z,6.97
2023-05-11T06:27:57.883Z,6.90
2023-05-11T06:30:27.331Z,7.57
2023-05-11T06:32:55.415Z,7.88
2023-05-11T06:35:23.582Z,7.60
2023-05-11T06:37:51.692Z,7.15
2023-05-11T06:40:20.090Z,6.97
2023-05-11T06:42:48.361Z,7.38
2023-05-11T06:45:16.518Z,8.15
2023-05-11T06:47:46.096Z,8.70
2023-05-11T06:50:14.111Z,8.20
2023-05-11T06:52:42.183Z,9.15
2023-05-11T06:55:14.367Z,9.05
2023-05-11T06:57:42.423Z,8.40
2023-05-11T07:00:11.641Z,8.20
2023-05-11T07:02:39.737Z,7.97
2023-05-11T07:05:09.709Z,7.75
2023-05-11T07:07:37.842Z,8.95
2023-05-11T07:10:06.751Z,8.68
2023-05-11T07:12:34.849Z,8.00
2023-05-11T07:15:02.899Z,7.68
2023-05-11T07:17:31.015Z,8.18
2023-05-11T07:19:59.060Z,8.27
2023-05-11T07:22:28.481Z,8.32
2023-05-11T07:24:56.541Z,7.88
2023-05-11T07:27:24.560Z,8.20
2023-05-11T07:29:52.663Z,8.52
2023-05-11T07:32:20.759Z,8.70
2023-05-11T07:34:48.846Z,9.27
2023-05-11T07:37:16.902Z,8.32
2023-05-11T07:39:46.347Z,8.48
2023-05-11T07:42:14.397Z,8.48
2023-05-11T07:44:42.420Z,8.00
2023-05-11T07:47:10.522Z,7.07
2023-05-11T07:49:43.473Z,7.18
2023-05-11T07:52:12.675Z,7.70
2023-05-11T07:54:40.930Z,7.97
2023-05-11T07:57:13.797Z,8.02
2023-05-11T07:59:41.991Z,7.90
2023-05-11T08:02:12.916Z,7.20
2023-05-11T08:04:41.400Z,7.32
2023-05-11T08:07:09.621Z,7.75
2023-05-11T08:09:37.977Z,6.93
2023-05-11T08:12:06.315Z,7.15
2023-05-11T08:14:37.702Z,7.35
2023-05-11T08:17:06.314Z,7.28
2023-05-11T08:19:34.399Z,7.03
2023-05-11T08:22:02.708Z,7.22
2023-05-11T08:24:30.744Z,7.18
2023-05-11T08:26:58.777Z,7.35
2023-05-11T08:29:27.454Z,7.00
2023-05-11T08:31:57.032Z,7.35
2023-05-11T08:34:25.278Z,6.75
2023-05-11T08:36:55.151Z,7.20
2023-05-11T08:39:38.890Z,7.32
2023-05-11T08:42:13.846Z,7.47
2023-05-11T08:44:44.288Z,6.82
2023-05-11T08:49:45.926Z,7.57
2023-05-11T08:52:17.900Z,6.82
2023-05-11T08:54:46.726Z,7.05
2023-05-11T08:57:15.440Z,6.38
2023-05-11T08:59:46.891Z,6.57
2023-05-11T09:02:19.078Z,7.15
2023-05-11T09:04:49.166Z,7.30
2023-05-11T09:07:18.704Z,7.40
2023-05-11T09:09:47.221Z,6.82
2023-05-11T09:12:15.554Z,6.95
2023-05-11T09:14:43.979Z,7.70
2023-05-11T09:17:12.302Z,7.65
2023-05-11T09:19:58.962Z,6.68
2023-05-11T09:22:29.865Z,6.70
2023-05-11T09:24:59.095Z,6.57
2023-05-11T09:27:27.182Z,6.30
2023-05-11T09:29:55.762Z,6.88
2023-05-11T09:32:23.967Z,7.75
2023-05-11T09:34:53.541Z,6.35
2023-05-11T09:37:21.687Z,6.75
2023-05-11T09:40:14.212Z,6.53
2023-05-11T09:42:44.253Z,7.05
2023-05-11T09:45:12.513Z,6.57
2023-05-11T09:47:41.598Z,6.85
2023-05-11T09:52:54.088Z,7.25
2023-05-11T09:55:22.212Z,7.25
2023-05-11T09:57:56.162Z,7.18
2023-05-11T10:00:25.984Z,7.50
2023-05-11T10:03:07.759Z,6.78
2023-05-11T10:05:38.517Z,6.47
2023-05-11T10:08:07.482Z,6.80
2023-05-11T10:10:36.373Z,7.18
2023-05-11T10:13:04.627Z,7.30
2023-05-11T10:15:36.621Z,6.28
2023-05-11T10:18:05.198Z,6.45
2023-05-11T10:20:34.670Z,6.28
2023-05-11T10:23:04.879Z,6.18
2023-05-11T10:25:35.086Z,6.55
2023-05-11T10:28:04.001Z,5.97
2023-05-11T10:30:34.399Z,5.90
2023-05-11T10:33:02.838Z,5.40
2023-05-11T10:35:31.799Z,5.75
2023-05-11T10:37:59.889Z,5.10
2023-05-11T10:40:29.910Z,5.25
2023-05-11T10:43:23.851Z,5.70
2023-05-11T10:45:57.981Z,4.60
2023-05-11T10:48:48.869Z,5.28
2023-05-11T10:51:34.463Z,5.53
2023-05-11T10:54:15.533Z,5.43
2023-05-11T10:57:01.764Z,5.68
2023-05-11T11:00:08.997Z,6.15
2023-05-11T11:02:37.782Z,5.78
2023-05-11T11:05:10.526Z,5.90
2023-05-11T11:08:00.057Z,5.55
2023-05-11T11:10:32.807Z,5.43
2023-05-11T11:13:07.616Z,5.80
2023-05-11T11:16:09.522Z,4.90
2023-05-11T11:18:37.735Z,4.55
2023-05-11T11:21:05.900Z,5.13
2023-05-11T11:23:49.635Z,5.40
2023-05-11T11:26:21.015Z,5.22
2023-05-11T11:29:12.818Z,5.43
2023-05-11T11:31:42.120Z,4.93
2023-05-11T11:34:37.471Z,5.55
2023-05-11T11:37:06.696Z,5.90
2023-05-11T11:40:08.898Z,6.63
2023-05-11T11:42:44.168Z,7.32
2023-05-11T11:45:33.532Z,7.43
2023-05-11T11:48:15.988Z,7.88
2023-05-11T11:50:46.961Z,8.02
2023-05-11T11:54:07.834Z,8.40
2023-05-11T11:56:42.318Z,8.00
2023-05-11T11:59:13.931Z,9.25
2023-05-11T12:01:45.237Z,9.13
2023-05-11T12:04:44.088Z,9.50
2023-05-11T12:07:13.785Z,10.18
2023-05-11T12:09:44.721Z,10.30
2023-05-11T12:12:13.150Z,9.53
2023-05-11T12:14:48.752Z,9.32
2023-05-11T12:17:25.893Z,10.10
2023-05-11T12:19:54.002Z,10.35
2023-05-11T12:22:26.424Z,10.10
2023-05-11T12:25:00.306Z,10.25
2023-05-11T12:27:28.735Z,9.15
2023-05-11T12:29:57.358Z,9.57
2023-05-11T12:32:31.404Z,8.80
2023-05-11T12:35:01.113Z,8.93
2023-05-11T12:37:30.096Z,8.68
2023-05-11T12:39:58.957Z,9.73
2023-05-11T12:42:28.806Z,9.38
2023-05-11T12:44:57.220Z,9.07
2023-05-11T12:47:25.533Z,9.50
2023-05-11T12:49:55.049Z,10.25
2023-05-11T12:52:25.948Z,9.75
2023-05-11T12:55:00.151Z,10.00
2023-05-11T12:57:29.831Z,10.07
2023-05-11T13:00:10.065Z,9.32
2023-05-11T13:02:46.146Z,9.73
2023-05-11T13:05:16.833Z,9.55
2023-05-11T13:07:45.905Z,9.90
2023-05-11T13:10:14.665Z,9.52
2023-05-11T13:12:51.659Z,10.93
2023-05-11T13:15:21.796Z,10.68
2023-05-11T13:17:56.890Z,9.50
2023-05-11T13:20:28.584Z,9.93
2023-05-11T13:23:07.092Z,9.60
2023-05-11T13:25:35.998Z,9.63
2023-05-11T13:28:04.247Z,9.23
2023-05-11T13:30:34.719Z,6.43
2023-05-11T13:33:03.444Z,4.70
2023-05-11T13:35:32.883Z,4.25
2023-05-11T13:38:01.100Z,5.53
2023-05-11T13:40:29.313Z,4.40
2023-05-11T13:42:57.769Z,3.97
2023-05-11T13:45:25.837Z,11.25
2023-05-11T13:47:55.217Z,5.30
2023-05-11T13:50:23.705Z,5.20
2023-05-11T13:52:53.557Z,4.88
2023-05-11T13:55:22.176Z,3.45
2023-05-11T13:57:50.395Z,11.77
2023-05-11T14:00:19.442Z,8.55
2023-05-11T14:02:49.689Z,6.03
2023-05-11T14:05:18.792Z,8.75
2023-05-11T14:07:49.020Z,9.57
2023-05-11T14:10:18.859Z,6.85
2023-05-11T14:12:47.021Z,7.85
2023-05-11T14:15:15.083Z,4.38
2023-05-11T14:17:43.521Z,13.75
2023-05-11T14:20:13.152Z,11.15
2023-05-11T14:22:41.590Z,6.72
2023-05-11T14:25:10.257Z,5.82
2023-05-11T14:27:39.754Z,4.32
2023-05-11T14:30:09.146Z,16.83
2023-05-11T14:32:37.322Z,12.40
2023-05-11T14:35:05.853Z,14.95
2023-05-11T14:37:34.119Z,18.75
2023-05-11T14:40:02.165Z,16.05
2023-05-11T14:42:30.526Z,10.25
2023-05-11T14:45:00.056Z,9.35
2023-05-11T14:47:28.181Z,6.93
2023-05-11T14:49:56.520Z,5.35
2023-05-11T14:52:24.563Z,6.00
2023-05-11T14:54:52.814Z,4.85
2023-05-11T14:57:20.990Z,6.85
2023-05-11T14:59:58.994Z,11.75
2023-05-11T15:02:30.398Z,6.70
2023-05-11T15:04:58.501Z,6.22
2023-05-11T15:07:26.844Z,5.55
2023-05-11T15:09:55.102Z,4.47
2023-05-11T15:12:23.129Z,5.45
2023-05-11T15:14:51.245Z,9.43
2023-05-11T15:17:19.300Z,8.73
2023-05-11T15:19:48.758Z,13.13
2023-05-11T15:22:17.666Z,12.88
2023-05-11T15:24:45.808Z,11.15
2023-05-11T15:27:13.936Z,9.35
2023-05-11T15:29:42.002Z,6.63
2023-05-11T15:32:13.574Z,7.70
2023-05-11T15:34:55.524Z,8.23
2023-05-11T15:37:29.174Z,5.53
2023-05-11T15:39:57.291Z,5.15
2023-05-11T15:42:25.445Z,7.15
2023-05-11T15:44:53.633Z,8.45
2023-05-11T15:47:21.875Z,10.10
2023-05-11T15:49:50.212Z,7.00
2023-05-11T15:52:18.362Z,5.50
2023-05-11T15:54:47.939Z,6.25
2023-05-11T15:57:16.319Z,3.92
2023-05-11T15:59:44.478Z,4.95
2023-05-11T16:02:12.559Z,5.38
2023-05-11T16:04:40.622Z,4.13
2023-05-11T16:07:08.684Z,5.60
2023-05-11T16:09:37.133Z,5.13
2023-05-11T16:12:07.287Z,6.70
2023-05-11T16:14:35.364Z,11.48
2023-05-11T16:17:03.578Z,8.20
2023-05-11T16:19:34.432Z,12.32
2023-05-11T16:22:02.504Z,5.97
2023-05-11T16:24:34.349Z,4.03
2023-05-11T16:27:02.995Z,4.50
2023-05-11T16:29:32.453Z,11.55
2023-05-11T16:32:00.819Z,8.13
2023-05-11T16:34:29.023Z,4.63
2023-05-11T16:36:58.909Z,3.33
2023-05-11T16:39:27.646Z,2.65
2023-05-11T16:41:55.733Z,2.40
2023-05-11T16:44:24.074Z,2.70
2023-05-11T16:46:53.592Z,2.50
2023-05-11T16:49:21.675Z,2.45
2023-05-11T16:51:49.804Z,6.68
2023-05-11T16:54:17.875Z,6.72
2023-05-11T16:56:45.922Z,3.50
2023-05-11T16:59:14.192Z,2.60
2023-05-11T17:01:42.388Z,2.40
2023-05-11T17:04:12.101Z,2.70
2023-05-11T17:06:40.390Z,2.75
2023-05-11T17:09:08.470Z,3.10
2023-05-11T17:11:36.866Z,3.67
2023-05-11T17:14:04.924Z,4.53
2023-05-11T17:16:33.226Z,4.50
2023-05-11T17:19:01.343Z,4.25
2023-05-11T17:21:30.874Z,3.95
2023-05-11T17:23:59.108Z,3.03
2023-05-11T17:26:35.770Z,4.45
2023-05-11T17:29:11.985Z,3.97
2023-05-11T17:31:40.212Z,3.22
2023-05-11T17:34:09.274Z,3.08
2023-05-11T17:36:39.076Z,2.63
2023-05-11T17:39:08.112Z,3.00
2023-05-11T17:41:36.327Z,2.60
2023-05-11T17:44:04.414Z,3.17
2023-05-11T17:46:32.620Z,2.70
2023-05-11T17:49:01.319Z,1.88
2023-05-11T17:51:29.446Z,3.00
2023-05-11T17:53:58.929Z,17.73
2023-05-11T17:56:27.034Z,10.88
2023-05-11T17:58:55.318Z,8.85
2023-05-11T18:01:23.486Z,5.78
2023-05-11T18:03:51.814Z,3.70
2023-05-11T18:06:19.942Z,3.50
2023-05-11T18:08:48.664Z,3.47
2023-05-11T18:11:18.085Z,3.30
2023-05-11T18:13:46.270Z,2.65
2023-05-11T18:16:14.377Z,2.40
2023-05-11T18:18:43.254Z,2.50
2023-05-11T18:21:11.682Z,2.17
2023-05-11T18:23:39.790Z,2.40
2023-05-11T18:26:08.255Z,1.92
2023-05-11T18:28:37.669Z,1.95
2023-05-11T18:31:05.754Z,1.90
2023-05-11T18:33:33.848Z,1.70
2023-05-11T18:36:03.914Z,27.17
2023-05-11T18:38:32.185Z,13.15
2023-05-11T18:41:04.343Z,6.90
2023-05-11T18:43:32.663Z,4.13
2023-05-11T18:46:02.088Z,4.88
2023-05-11T18:48:30.123Z,9.38
2023-05-11T18:50:58.230Z,5.72
2023-05-11T18:53:26.666Z,3.03
2023-05-11T18:55:54.918Z,4.88
2023-05-11T18:58:23.586Z,4.55
2023-05-11T19:00:52.332Z,3.88
2023-05-11T19:03:22.979Z,2.25
2023-05-11T19:05:51.786Z,2.35
2023-05-11T19:08:19.860Z,2.42
2023-05-11T19:10:49.413Z,3.33
2023-05-11T19:13:17.516Z,3.80
2023-05-11T19:15:50.011Z,2.50
2023-05-11T19:18:20.597Z,2.53
2023-05-11T19:20:51.238Z,2.55
2023-05-11T19:23:22.504Z,3.05
2023-05-11T19:25:52.093Z,3.00
2023-05-11T19:28:21.661Z,2.65
2023-05-11T19:30:50.261Z,2.08
2023-05-11T19:33:21.169Z,2.33
2023-05-11T19:35:52.778Z,2.30
2023-05-11T19:38:26.624Z,2.30
2023-05-11T19:40:56.876Z,2.03
2023-05-11T19:43:30.451Z,2.35
2023-05-11T19:46:05.023Z,2.40
2023-05-11T19:48:35.392Z,2.25
2023-05-11T19:51:08.326Z,2.17
2023-05-11T19:53:37.817Z,2.00
2023-05-11T19:56:07.231Z,2.58
2023-05-11T19:58:38.405Z,2.50
2023-05-11T20:01:08.700Z,2.80
2023-05-11T20:03:49.284Z,3.13
2023-05-11T20:06:19.914Z,2.80
2023-05-11T20:08:51.951Z,2.88
2023-05-11T20:11:25.483Z,2.63
2023-05-11T20:13:59.685Z,2.78
2023-05-11T20:16:33.262Z,3.13
2023-05-11T20:19:05.076Z,3.53
2023-05-11T20:24:10.633Z,3.17
2023-05-11T20:26:40.410Z,3.30
2023-05-11T20:29:11.261Z,3.95
2023-05-11T20:31:40.416Z,3.97
2023-05-11T20:34:10.209Z,4.30
2023-05-11T20:36:40.804Z,4.28
2023-05-11T20:39:11.624Z,4.22
2023-05-11T20:41:42.032Z,4.05
2023-05-11T20:44:13.908Z,4.90
2023-05-11T20:49:22.160Z,5.40
2023-05-11T20:51:55.160Z,5.00
2023-05-11T20:54:24.113Z,4.60
2023-05-11T20:56:53.721Z,4.45
2023-05-11T21:01:53.635Z,4.88
2023-05-11T21:04:21.797Z,4.10
2023-05-11T21:06:49.835Z,4.22
2023-05-11T21:09:19.325Z,3.88
2023-05-11T21:11:48.343Z,3.20
2023-05-11T21:14:16.834Z,3.90
2023-05-11T21:16:44.912Z,3.38
2023-05-11T21:19:13.001Z,4.00
2023-05-11T21:21:41.032Z,3.63
2023-05-11T21:24:09.237Z,3.60
2023-05-11T21:26:38.645Z,4.28
2023-05-11T21:29:06.675Z,3.60
2023-05-11T21:31:34.692Z,4.13
2023-05-11T21:34:02.748Z,4.35
2023-05-11T21:36:30.969Z,4.32
2023-05-11T21:38:58.988Z,4.47
2023-05-11T21:41:27.933Z,4.43
2023-05-11T21:43:57.334Z,3.83
2023-05-11T21:46:25.427Z,4.50
2023-05-11T21:48:53.496Z,4.68
2023-05-11T21:51:21.585Z,4.43
2023-05-11T21:53:49.650Z,4.45
2023-05-11T21:56:17.711Z,4.80
2023-05-11T21:58:45.742Z,4.60
2023-05-11T22:01:15.252Z,4.72
2023-05-11T22:03:43.532Z,5.25
2023-05-11T22:06:11.692Z,4.78
2023-05-11T22:08:39.729Z,4.60
2023-05-11T22:11:07.876Z,3.65
2023-05-11T22:13:35.913Z,4.38
2023-05-11T22:16:04.344Z,4.35
2023-05-11T22:18:33.801Z,3.67
2023-05-11T22:21:02.734Z,3.38
2023-05-11T22:23:31.168Z,3.50
2023-05-11T22:25:59.227Z,3.75
2023-05-11T22:28:27.363Z,3.40
2023-05-11T22:30:55.393Z,3.10
2023-05-11T22:33:23.406Z,3.15
2023-05-11T22:35:52.897Z,3.20
2023-05-11T22:38:20.928Z,3.20
2023-05-11T22:40:49.356Z,2.83
2023-05-11T22:43:17.718Z,2.17
2023-05-11T22:45:45.881Z,2.60
2023-05-11T22:48:13.987Z,2.45
2023-05-11T22:50:46.554Z,2.35
2023-05-11T22:53:16.276Z,1.75
2023-05-11T22:55:44.328Z,1.90
2023-05-11T22:58:12.418Z,1.75
2023-05-11T23:00:40.637Z,2.10
2023-05-11T23:03:08.787Z,1.85
2023-05-11T23:05:37.205Z,1.88
2023-05-11T23:08:05.283Z,1.60
2023-05-11T23:10:34.696Z,2.00
2023-05-11T23:13:04.836Z,1.80
2023-05-11T23:15:33.056Z,1.90
2023-05-11T23:18:01.224Z,1.95
2023-05-11T23:20:29.305Z,1.50
2023-05-11T23:22:57.325Z,1.60
2023-05-11T23:25:25.973Z,1.40
2023-05-11T23:27:55.736Z,1.40
2023-05-11T23:30:24.244Z,0.90
2023-05-11T23:32:52.377Z,1.10
2023-05-11T23:35:20.449Z,1.05
2023-05-11T23:37:48.488Z,1.10
2023-05-11T23:40:16.643Z,0.70
2023-05-11T23:42:44.721Z,0.95
2023-05-11T23:45:14.406Z,1.05
2023-05-11T23:47:42.739Z,1.00
2023-05-11T23:50:11.348Z,0.90
2023-05-11T23:52:39.441Z,0.95
2023-05-11T23:55:09.132Z,0.82
2023-05-11T23:57:37.366Z,1.00
